sensor_id;sensor_type;location;lat;lon;timestamp;temperature;humidity
10492;DHT22;5293;51.464;-2.566;2023-07-09T00:01:59;18.40;99.90
10492;DHT22;5293;51.464;-2.566;2023-07-09T00:04:24;18.40;99.90
10492;DHT22;5293;51.464;-2.566;2023-07-09T00:06:50;18.30;99.90
10492;DHT22;5293;51.464;-2.566;2023-07-09T00:09:21;18.20;99.90
10492;DHT22;5293;51.464;-2.566;2023-07-09T00:11:48;18.20;99.90
10492;DHT22;5293;51.464;-2.566;2023-07-09T00:14:15;18.20;99.90
10492;DHT22;5293;51.464;-2.566;2023-07-09T00:16:43;18.20;99.90
10492;DHT22;5293;51.464;-2.566;2023-07-09T00:19:14;18.20;99.90
10492;DHT22;5293;51.464;-2.566;2023-07-09T00:21:42;18.20;99.90
10492;DHT22;5293;51.464;-2.566;2023-07-09T00:24:11;18.10;99.90
10492;DHT22;5293;51.464;-2.566;2023-07-09T00:26:38;18.00;99.90
10492;DHT22;5293;51.464;-2.566;2023-07-09T00:29:11;18.00;99.90
10492;DHT22;5293;51.464;-2.566;2023-07-09T00:31:37;18.00;99.90
10492;DHT22;5293;51.464;-2.566;2023-07-09T00:34:10;18.00;99.90
10492;DHT22;5293;51.464;-2.566;2023-07-09T00:36:40;18.00;99.90
10492;DHT22;5293;51.464;-2.566;2023-07-09T00:39:20;18.00;99.90
10492;DHT22;5293;51.464;-2.566;2023-07-09T00:41:46;18.00;99.90
10492;DHT22;5293;51.464;-2.566;2023-07-09T00:44:30;17.90;99.90
10492;DHT22;5293;51.464;-2.566;2023-07-09T00:49:33;18.00;99.90
10492;DHT22;5293;51.464;-2.566;2023-07-09T00:52:03;18.00;99.90
10492;DHT22;5293;51.464;-2.566;2023-07-09T00:54:35;18.00;99.90
10492;DHT22;5293;51.464;-2.566;2023-07-09T00:57:10;18.00;99.90
10492;DHT22;5293;51.464;-2.566;2023-07-09T00:59:38;18.00;99.90
10492;DHT22;5293;51.464;-2.566;2023-07-09T01:02:06;18.00;99.90
10492;DHT22;5293;51.464;-2.566;2023-07-09T01:04:32;18.00;99.90
10492;DHT22;5293;51.464;-2.566;2023-07-09T01:06:58;18.00;99.90
10492;DHT22;5293;51.464;-2.566;2023-07-09T01:09:25;18.00;99.90
10492;DHT22;5293;51.464;-2.566;2023-07-09T01:11:51;18.00;99.90
10492;DHT22;5293;51.464;-2.566;2023-07-09T01:14:22;17.90;99.90
10492;DHT22;5293;51.464;-2.566;2023-07-09T01:16:53;17.90;99.90
10492;DHT22;5293;51.464;-2.566;2023-07-09T01:19:28;17.90;99.90
10492;DHT22;5293;51.464;-2.566;2023-07-09T01:21:59;17.90;99.90
10492;DHT22;5293;51.464;-2.566;2023-07-09T01:27:17;17.80;99.90
10492;DHT22;5293;51.464;-2.566;2023-07-09T01:29:44;17.80;99.90
10492;DHT22;5293;51.464;-2.566;2023-07-09T01:32:16;17.80;99.90
10492;DHT22;5293;51.464;-2.566;2023-07-09T01:34:45;17.80;99.90
10492;DHT22;5293;51.464;-2.566;2023-07-09T01:37:14;17.80;99.90
10492;DHT22;5293;51.464;-2.566;2023-07-09T01:39:39;17.80;99.90
10492;DHT22;5293;51.464;-2.566;2023-07-09T01:42:07;17.80;99.90
10492;DHT22;5293;51.464;-2.566;2023-07-09T01:44:34;17.80;99.90
10492;DHT22;5293;51.464;-2.566;2023-07-09T01:47:01;17.80;99.90
10492;DHT22;5293;51.464;-2.566;2023-07-09T01:49:30;17.70;99.90
10492;DHT22;5293;51.464;-2.566;2023-07-09T01:52:01;17.70;99.90
10492;DHT22;5293;51.464;-2.566;2023-07-09T01:54:31;17.70;99.90
10492;DHT22;5293;51.464;-2.566;2023-07-09T01:57:32;17.70;99.90
10492;DHT22;5293;51.464;-2.566;2023-07-09T02:00:04;17.80;99.90
10492;DHT22;5293;51.464;-2.566;2023-07-09T02:02:31;17.70;99.90
10492;DHT22;5293;51.464;-2.566;2023-07-09T02:04:58;17.70;99.90
10492;DHT22;5293;51.464;-2.566;2023-07-09T02:07:24;17.70;99.90
10492;DHT22;5293;51.464;-2.566;2023-07-09T02:09:51;17.70;99.90
10492;DHT22;5293;51.464;-2.566;2023-07-09T02:12:18;17.70;99.90
10492;DHT22;5293;51.464;-2.566;2023-07-09T02:14:45;17.70;99.90
10492;DHT22;5293;51.464;-2.566;2023-07-09T02:17:13;17.80;99.90
10492;DHT22;5293;51.464;-2.566;2023-07-09T02:19:39;17.80;99.90
10492;DHT22;5293;51.464;-2.566;2023-07-09T02:22:05;17.80;99.90
10492;DHT22;5293;51.464;-2.566;2023-07-09T02:24:31;17.70;99.90
10492;DHT22;5293;51.464;-2.566;2023-07-09T02:26:58;17.70;99.90
10492;DHT22;5293;51.464;-2.566;2023-07-09T02:29:26;17.60;99.90
10492;DHT22;5293;51.464;-2.566;2023-07-09T02:31:54;17.60;99.90
10492;DHT22;5293;51.464;-2.566;2023-07-09T02:34:20;17.60;99.90
10492;DHT22;5293;51.464;-2.566;2023-07-09T02:36:46;17.60;99.90
10492;DHT22;5293;51.464;-2.566;2023-07-09T02:39:13;17.60;99.90
10492;DHT22;5293;51.464;-2.566;2023-07-09T02:41:40;17.60;99.90
10492;DHT22;5293;51.464;-2.566;2023-07-09T02:44:06;17.60;99.90
10492;DHT22;5293;51.464;-2.566;2023-07-09T02:46:33;17.50;99.90
10492;DHT22;5293;51.464;-2.566;2023-07-09T02:48:58;17.50;99.90
10492;DHT22;5293;51.464;-2.566;2023-07-09T02:51:24;17.50;99.90
10492;DHT22;5293;51.464;-2.566;2023-07-09T02:53:56;17.50;99.90
10492;DHT22;5293;51.464;-2.566;2023-07-09T02:56:22;17.50;99.90
10492;DHT22;5293;51.464;-2.566;2023-07-09T02:58:48;17.50;99.90
10492;DHT22;5293;51.464;-2.566;2023-07-09T03:01:14;17.50;99.90
10492;DHT22;5293;51.464;-2.566;2023-07-09T03:03:39;17.50;99.90
10492;DHT22;5293;51.464;-2.566;2023-07-09T03:06:06;17.50;99.90
10492;DHT22;5293;51.464;-2.566;2023-07-09T03:08:32;17.50;99.90
10492;DHT22;5293;51.464;-2.566;2023-07-09T03:10:58;17.50;99.90
10492;DHT22;5293;51.464;-2.566;2023-07-09T03:13:24;17.50;99.90
10492;DHT22;5293;51.464;-2.566;2023-07-09T03:15:57;17.40;99.90
10492;DHT22;5293;51.464;-2.566;2023-07-09T03:18:23;17.40;99.90
10492;DHT22;5293;51.464;-2.566;2023-07-09T03:20:49;17.40;99.90
10492;DHT22;5293;51.464;-2.566;2023-07-09T03:23:15;17.30;99.90
10492;DHT22;5293;51.464;-2.566;2023-07-09T03:25:41;17.30;99.90
10492;DHT22;5293;51.464;-2.566;2023-07-09T03:28:07;17.30;99.90
10492;DHT22;5293;51.464;-2.566;2023-07-09T03:30:33;17.30;99.90
10492;DHT22;5293;51.464;-2.566;2023-07-09T03:32:59;17.30;99.90
10492;DHT22;5293;51.464;-2.566;2023-07-09T03:35:26;17.40;99.90
10492;DHT22;5293;51.464;-2.566;2023-07-09T03:37:52;17.40;99.90
10492;DHT22;5293;51.464;-2.566;2023-07-09T03:40:22;17.40;99.90
10492;DHT22;5293;51.464;-2.566;2023-07-09T03:42:48;17.40;99.90
10492;DHT22;5293;51.464;-2.566;2023-07-09T03:45:14;17.40;99.90
10492;DHT22;5293;51.464;-2.566;2023-07-09T03:47:40;17.50;99.90
10492;DHT22;5293;51.464;-2.566;2023-07-09T03:50:07;17.40;99.90
10492;DHT22;5293;51.464;-2.566;2023-07-09T03:52:33;17.50;99.90
10492;DHT22;5293;51.464;-2.566;2023-07-09T03:54:59;17.50;99.90
10492;DHT22;5293;51.464;-2.566;2023-07-09T03:57:26;17.50;99.90
10492;DHT22;5293;51.464;-2.566;2023-07-09T03:59:52;17.40;99.90
10492;DHT22;5293;51.464;-2.566;2023-07-09T04:02:18;17.40;99.90
10492;DHT22;5293;51.464;-2.566;2023-07-09T04:04:44;17.40;99.90
10492;DHT22;5293;51.464;-2.566;2023-07-09T04:07:10;17.40;99.90
10492;DHT22;5293;51.464;-2.566;2023-07-09T04:09:35;17.40;99.90
10492;DHT22;5293;51.464;-2.566;2023-07-09T04:12:01;17.50;99.90
10492;DHT22;5293;51.464;-2.566;2023-07-09T04:14:27;17.40;99.90
10492;DHT22;5293;51.464;-2.566;2023-07-09T04:16:53;17.20;99.90
10492;DHT22;5293;51.464;-2.566;2023-07-09T04:19:18;17.20;99.90
10492;DHT22;5293;51.464;-2.566;2023-07-09T04:21:44;17.10;99.90
10492;DHT22;5293;51.464;-2.566;2023-07-09T04:24:10;17.00;99.90
10492;DHT22;5293;51.464;-2.566;2023-07-09T04:26:35;17.00;99.90
10492;DHT22;5293;51.464;-2.566;2023-07-09T04:29:04;17.00;99.90
10492;DHT22;5293;51.464;-2.566;2023-07-09T04:31:30;17.00;99.90
10492;DHT22;5293;51.464;-2.566;2023-07-09T04:33:56;17.00;99.90
10492;DHT22;5293;51.464;-2.566;2023-07-09T04:36:21;17.00;99.90
10492;DHT22;5293;51.464;-2.566;2023-07-09T04:38:47;16.90;99.90
10492;DHT22;5293;51.464;-2.566;2023-07-09T04:41:13;16.90;99.90
10492;DHT22;5293;51.464;-2.566;2023-07-09T04:43:39;16.90;99.90
10492;DHT22;5293;51.464;-2.566;2023-07-09T04:46:04;16.90;99.90
10492;DHT22;5293;51.464;-2.566;2023-07-09T04:48:30;17.00;99.90
10492;DHT22;5293;51.464;-2.566;2023-07-09T04:50:55;16.90;99.90
10492;DHT22;5293;51.464;-2.566;2023-07-09T04:53:21;16.90;99.90
10492;DHT22;5293;51.464;-2.566;2023-07-09T04:55:49;16.90;99.90
10492;DHT22;5293;51.464;-2.566;2023-07-09T04:58:15;17.00;99.90
10492;DHT22;5293;51.464;-2.566;2023-07-09T05:00:42;17.00;99.90
10492;DHT22;5293;51.464;-2.566;2023-07-09T05:03:08;17.00;99.90
10492;DHT22;5293;51.464;-2.566;2023-07-09T05:05:33;17.10;99.90
10492;DHT22;5293;51.464;-2.566;2023-07-09T05:07:59;17.10;99.90
10492;DHT22;5293;51.464;-2.566;2023-07-09T05:10:25;17.10;99.90
10492;DHT22;5293;51.464;-2.566;2023-07-09T05:12:53;17.10;99.90
10492;DHT22;5293;51.464;-2.566;2023-07-09T05:15:20;17.20;99.90
10492;DHT22;5293;51.464;-2.566;2023-07-09T05:17:46;17.20;99.90
10492;DHT22;5293;51.464;-2.566;2023-07-09T05:20:13;17.30;99.90
10492;DHT22;5293;51.464;-2.566;2023-07-09T05:22:40;17.30;99.90
10492;DHT22;5293;51.464;-2.566;2023-07-09T05:25:06;17.20;99.90
10492;DHT22;5293;51.464;-2.566;2023-07-09T05:27:32;17.30;99.90
10492;DHT22;5293;51.464;-2.566;2023-07-09T05:29:57;17.30;99.90
10492;DHT22;5293;51.464;-2.566;2023-07-09T05:32:24;17.30;99.90
10492;DHT22;5293;51.464;-2.566;2023-07-09T05:34:49;17.40;99.90
10492;DHT22;5293;51.464;-2.566;2023-07-09T05:37:15;17.40;99.90
10492;DHT22;5293;51.464;-2.566;2023-07-09T05:39:40;17.40;99.90
10492;DHT22;5293;51.464;-2.566;2023-07-09T05:42:06;17.40;99.90
10492;DHT22;5293;51.464;-2.566;2023-07-09T05:44:32;17.40;99.90
10492;DHT22;5293;51.464;-2.566;2023-07-09T05:46:58;17.40;99.90
10492;DHT22;5293;51.464;-2.566;2023-07-09T05:49:23;17.40;99.90
10492;DHT22;5293;51.464;-2.566;2023-07-09T05:51:49;17.30;99.90
10492;DHT22;5293;51.464;-2.566;2023-07-09T05:54:15;17.40;99.90
10492;DHT22;5293;51.464;-2.566;2023-07-09T05:56:41;17.50;99.90
10492;DHT22;5293;51.464;-2.566;2023-07-09T05:59:06;17.30;99.90
10492;DHT22;5293;51.464;-2.566;2023-07-09T06:01:32;17.40;99.90
10492;DHT22;5293;51.464;-2.566;2023-07-09T06:03:57;17.30;99.90
10492;DHT22;5293;51.464;-2.566;2023-07-09T06:06:23;17.40;99.90
10492;DHT22;5293;51.464;-2.566;2023-07-09T06:08:49;17.40;99.90
10492;DHT22;5293;51.464;-2.566;2023-07-09T06:11:15;17.30;99.90
10492;DHT22;5293;51.464;-2.566;2023-07-09T06:13:43;17.30;99.90
10492;DHT22;5293;51.464;-2.566;2023-07-09T06:16:09;17.20;99.90
10492;DHT22;5293;51.464;-2.566;2023-07-09T06:18:34;17.20;99.90
10492;DHT22;5293;51.464;-2.566;2023-07-09T06:21:02;17.20;99.90
10492;DHT22;5293;51.464;-2.566;2023-07-09T06:23:28;17.40;99.90
10492;DHT22;5293;51.464;-2.566;2023-07-09T06:25:54;17.40;99.90
10492;DHT22;5293;51.464;-2.566;2023-07-09T06:28:24;17.50;99.90
10492;DHT22;5293;51.464;-2.566;2023-07-09T06:30:50;17.70;99.90
10492;DHT22;5293;51.464;-2.566;2023-07-09T06:33:18;17.70;99.90
10492;DHT22;5293;51.464;-2.566;2023-07-09T06:35:52;17.70;99.90
10492;DHT22;5293;51.464;-2.566;2023-07-09T06:38:18;17.70;99.90
10492;DHT22;5293;51.464;-2.566;2023-07-09T06:40:44;17.80;99.90
10492;DHT22;5293;51.464;-2.566;2023-07-09T06:43:10;17.80;99.90
10492;DHT22;5293;51.464;-2.566;2023-07-09T06:45:36;17.70;99.90
10492;DHT22;5293;51.464;-2.566;2023-07-09T06:48:02;17.70;99.90
10492;DHT22;5293;51.464;-2.566;2023-07-09T06:50:29;17.80;99.90
10492;DHT22;5293;51.464;-2.566;2023-07-09T06:52:54;17.90;99.90
10492;DHT22;5293;51.464;-2.566;2023-07-09T06:55:20;18.00;99.90
10492;DHT22;5293;51.464;-2.566;2023-07-09T06:57:45;18.10;99.90
10492;DHT22;5293;51.464;-2.566;2023-07-09T07:00:11;18.00;99.90
10492;DHT22;5293;51.464;-2.566;2023-07-09T07:02:37;18.00;99.90
10492;DHT22;5293;51.464;-2.566;2023-07-09T07:05:03;17.90;99.90
10492;DHT22;5293;51.464;-2.566;2023-07-09T07:07:29;17.80;99.90
10492;DHT22;5293;51.464;-2.566;2023-07-09T07:09:54;17.70;99.90
10492;DHT22;5293;51.464;-2.566;2023-07-09T07:12:26;17.90;99.90
10492;DHT22;5293;51.464;-2.566;2023-07-09T07:14:53;18.00;99.90
10492;DHT22;5293;51.464;-2.566;2023-07-09T07:17:19;18.10;99.90
10492;DHT22;5293;51.464;-2.566;2023-07-09T07:19:45;18.30;99.90
10492;DHT22;5293;51.464;-2.566;2023-07-09T07:22:10;18.40;99.90
10492;DHT22;5293;51.464;-2.566;2023-07-09T07:24:36;18.40;99.90
10492;DHT22;5293;51.464;-2.566;2023-07-09T07:27:02;18.40;99.90
10492;DHT22;5293;51.464;-2.566;2023-07-09T07:29:28;18.40;99.90
10492;DHT22;5293;51.464;-2.566;2023-07-09T07:31:54;18.50;99.90
10492;DHT22;5293;51.464;-2.566;2023-07-09T07:34:20;18.80;99.90
10492;DHT22;5293;51.464;-2.566;2023-07-09T07:36:46;19.20;99.90
10492;DHT22;5293;51.464;-2.566;2023-07-09T07:39:12;19.30;99.90
10492;DHT22;5293;51.464;-2.566;2023-07-09T07:41:38;19.30;99.90
10492;DHT22;5293;51.464;-2.566;2023-07-09T07:44:04;19.40;99.90
10492;DHT22;5293;51.464;-2.566;2023-07-09T07:46:32;19.50;99.90
10492;DHT22;5293;51.464;-2.566;2023-07-09T07:48:58;19.60;99.90
10492;DHT22;5293;51.464;-2.566;2023-07-09T07:51:23;19.80;99.90
10492;DHT22;5293;51.464;-2.566;2023-07-09T07:53:49;19.90;99.90
10492;DHT22;5293;51.464;-2.566;2023-07-09T07:56:15;20.00;99.90
10492;DHT22;5293;51.464;-2.566;2023-07-09T07:58:41;20.10;99.90
10492;DHT22;5293;51.464;-2.566;2023-07-09T08:01:07;20.40;99.90
10492;DHT22;5293;51.464;-2.566;2023-07-09T08:03:32;20.70;99.90
10492;DHT22;5293;51.464;-2.566;2023-07-09T08:05:58;20.90;99.90
10492;DHT22;5293;51.464;-2.566;2023-07-09T08:08:24;21.10;99.90
10492;DHT22;5293;51.464;-2.566;2023-07-09T08:10:50;21.40;99.90
10492;DHT22;5293;51.464;-2.566;2023-07-09T08:13:16;21.60;99.90
10492;DHT22;5293;51.464;-2.566;2023-07-09T08:15:42;21.60;99.90
10492;DHT22;5293;51.464;-2.566;2023-07-09T08:18:08;21.50;99.90
10492;DHT22;5293;51.464;-2.566;2023-07-09T08:20:33;21.60;99.90
10492;DHT22;5293;51.464;-2.566;2023-07-09T08:22:59;21.60;99.90
10492;DHT22;5293;51.464;-2.566;2023-07-09T08:25:25;21.40;99.90
10492;DHT22;5293;51.464;-2.566;2023-07-09T08:27:51;21.30;99.90
10492;DHT22;5293;51.464;-2.566;2023-07-09T08:30:16;21.30;99.90
10492;DHT22;5293;51.464;-2.566;2023-07-09T08:32:42;21.30;99.90
10492;DHT22;5293;51.464;-2.566;2023-07-09T08:35:08;21.20;99.90
10492;DHT22;5293;51.464;-2.566;2023-07-09T08:37:35;21.20;99.90
10492;DHT22;5293;51.464;-2.566;2023-07-09T08:40:01;21.00;99.90
10492;DHT22;5293;51.464;-2.566;2023-07-09T08:42:33;21.10;99.90
10492;DHT22;5293;51.464;-2.566;2023-07-09T08:48:19;21.20;99.90
10492;DHT22;5293;51.464;-2.566;2023-07-09T08:50:56;21.10;99.90
10492;DHT22;5293;51.464;-2.566;2023-07-09T08:53:49;21.10;99.90
10492;DHT22;5293;51.464;-2.566;2023-07-09T08:56:16;21.20;99.90
10492;DHT22;5293;51.464;-2.566;2023-07-09T08:58:43;21.30;99.90
10492;DHT22;5293;51.464;-2.566;2023-07-09T09:01:20;21.40;99.90
10492;DHT22;5293;51.464;-2.566;2023-07-09T09:06:17;21.40;99.90
10492;DHT22;5293;51.464;-2.566;2023-07-09T09:09:05;21.50;99.90
10492;DHT22;5293;51.464;-2.566;2023-07-09T09:14:19;21.30;99.90
10492;DHT22;5293;51.464;-2.566;2023-07-09T09:16:49;21.30;99.90
10492;DHT22;5293;51.464;-2.566;2023-07-09T09:19:23;21.30;99.90
10492;DHT22;5293;51.464;-2.566;2023-07-09T09:21:58;21.40;99.90
10492;DHT22;5293;51.464;-2.566;2023-07-09T09:24:31;21.50;99.90
10492;DHT22;5293;51.464;-2.566;2023-07-09T09:26:59;21.60;99.90
10492;DHT22;5293;51.464;-2.566;2023-07-09T09:29:25;21.90;99.90
10492;DHT22;5293;51.464;-2.566;2023-07-09T09:31:54;22.10;99.90
10492;DHT22;5293;51.464;-2.566;2023-07-09T09:34:30;22.30;99.90
10492;DHT22;5293;51.464;-2.566;2023-07-09T09:36:58;22.30;99.90
10492;DHT22;5293;51.464;-2.566;2023-07-09T09:39:25;22.30;99.90
10492;DHT22;5293;51.464;-2.566;2023-07-09T09:41:54;22.30;99.90
10492;DHT22;5293;51.464;-2.566;2023-07-09T09:44:28;22.30;99.90
10492;DHT22;5293;51.464;-2.566;2023-07-09T09:46:56;22.40;99.90
10492;DHT22;5293;51.464;-2.566;2023-07-09T09:49:22;22.50;99.90
10492;DHT22;5293;51.464;-2.566;2023-07-09T09:51:48;22.60;99.90
10492;DHT22;5293;51.464;-2.566;2023-07-09T09:54:24;22.50;99.90
10492;DHT22;5293;51.464;-2.566;2023-07-09T09:56:52;22.40;99.90
10492;DHT22;5293;51.464;-2.566;2023-07-09T09:59:29;22.40;99.90
10492;DHT22;5293;51.464;-2.566;2023-07-09T10:02:01;22.20;99.90
10492;DHT22;5293;51.464;-2.566;2023-07-09T10:04:27;22.40;99.90
10492;DHT22;5293;51.464;-2.566;2023-07-09T10:06:58;22.60;99.90
10492;DHT22;5293;51.464;-2.566;2023-07-09T10:09:49;22.70;99.90
10492;DHT22;5293;51.464;-2.566;2023-07-09T10:14:55;22.70;99.90
10492;DHT22;5293;51.464;-2.566;2023-07-09T10:19:57;22.40;99.90
10492;DHT22;5293;51.464;-2.566;2023-07-09T10:22:42;22.30;99.90
10492;DHT22;5293;51.464;-2.566;2023-07-09T10:25:30;22.10;99.90
10492;DHT22;5293;51.464;-2.566;2023-07-09T10:33:22;22.00;99.90
10492;DHT22;5293;51.464;-2.566;2023-07-09T10:38:49;22.00;99.90
10492;DHT22;5293;51.464;-2.566;2023-07-09T10:41:17;22.00;99.90
10492;DHT22;5293;51.464;-2.566;2023-07-09T10:44:18;21.90;99.90
10492;DHT22;5293;51.464;-2.566;2023-07-09T10:46:49;21.80;99.90
10492;DHT22;5293;51.464;-2.566;2023-07-09T10:49:16;21.70;99.90
10492;DHT22;5293;51.464;-2.566;2023-07-09T10:51:48;21.70;99.90
10492;DHT22;5293;51.464;-2.566;2023-07-09T11:00:02;21.80;99.90
10492;DHT22;5293;51.464;-2.566;2023-07-09T11:02:33;21.70;99.90
10492;DHT22;5293;51.464;-2.566;2023-07-09T11:05:04;21.60;99.90
10492;DHT22;5293;51.464;-2.566;2023-07-09T11:08:33;21.60;99.90
10492;DHT22;5293;51.464;-2.566;2023-07-09T11:10:59;21.70;99.90
10492;DHT22;5293;51.464;-2.566;2023-07-09T11:13:52;21.90;99.90
10492;DHT22;5293;51.464;-2.566;2023-07-09T11:16:45;22.00;99.90
10492;DHT22;5293;51.464;-2.566;2023-07-09T11:19:17;22.00;99.90
10492;DHT22;5293;51.464;-2.566;2023-07-09T11:22:12;22.10;99.90
10492;DHT22;5293;51.464;-2.566;2023-07-09T11:24:48;22.10;99.90
10492;DHT22;5293;51.464;-2.566;2023-07-09T11:27:26;22.30;99.90
10492;DHT22;5293;51.464;-2.566;2023-07-09T11:30:15;22.40;99.90
10492;DHT22;5293;51.464;-2.566;2023-07-09T11:32:46;22.70;99.90
10492;DHT22;5293;51.464;-2.566;2023-07-09T11:35:24;23.00;99.90
10492;DHT22;5293;51.464;-2.566;2023-07-09T11:37:51;23.00;99.90
10492;DHT22;5293;51.464;-2.566;2023-07-09T11:40:18;23.20;99.90
10492;DHT22;5293;51.464;-2.566;2023-07-09T11:42:58;23.30;99.90
10492;DHT22;5293;51.464;-2.566;2023-07-09T11:45:28;23.40;99.90
10492;DHT22;5293;51.464;-2.566;2023-07-09T11:50:45;23.50;99.90
10492;DHT22;5293;51.464;-2.566;2023-07-09T11:56:02;23.20;99.90
10492;DHT22;5293;51.464;-2.566;2023-07-09T11:58:28;23.00;99.90
10492;DHT22;5293;51.464;-2.566;2023-07-09T12:00:58;23.00;99.90
10492;DHT22;5293;51.464;-2.566;2023-07-09T12:03:35;22.90;99.90
10492;DHT22;5293;51.464;-2.566;2023-07-09T12:06:04;23.10;99.90
10492;DHT22;5293;51.464;-2.566;2023-07-09T12:08:36;23.00;99.90
10492;DHT22;5293;51.464;-2.566;2023-07-09T12:11:03;23.00;99.90
10492;DHT22;5293;51.464;-2.566;2023-07-09T12:13:28;23.20;99.90
10492;DHT22;5293;51.464;-2.566;2023-07-09T12:15:54;23.40;99.90
10492;DHT22;5293;51.464;-2.566;2023-07-09T12:18:20;23.50;99.90
10492;DHT22;5293;51.464;-2.566;2023-07-09T12:20:51;23.60;99.90
10492;DHT22;5293;51.464;-2.566;2023-07-09T12:25:51;23.80;99.90
10492;DHT22;5293;51.464;-2.566;2023-07-09T12:28:18;23.80;99.90
10492;DHT22;5293;51.464;-2.566;2023-07-09T12:30:51;23.90;99.90
10492;DHT22;5293;51.464;-2.566;2023-07-09T12:33:25;23.80;99.90
10492;DHT22;5293;51.464;-2.566;2023-07-09T12:38:25;23.60;99.90
10492;DHT22;5293;51.464;-2.566;2023-07-09T12:40:52;23.60;99.90
10492;DHT22;5293;51.464;-2.566;2023-07-09T12:43:26;23.40;99.90
10492;DHT22;5293;51.464;-2.566;2023-07-09T12:45:54;23.30;99.90
10492;DHT22;5293;51.464;-2.566;2023-07-09T12:48:25;23.20;99.90
10492;DHT22;5293;51.464;-2.566;2023-07-09T12:50:55;23.40;99.90
10492;DHT22;5293;51.464;-2.566;2023-07-09T12:53:24;23.50;99.90
10492;DHT22;5293;51.464;-2.566;2023-07-09T12:55:54;23.40;99.90
10492;DHT22;5293;51.464;-2.566;2023-07-09T12:58:22;23.40;99.90
10492;DHT22;5293;51.464;-2.566;2023-07-09T13:00:50;23.40;99.90
10492;DHT22;5293;51.464;-2.566;2023-07-09T13:03:19;23.30;99.90
10492;DHT22;5293;51.464;-2.566;2023-07-09T13:06:28;23.10;99.90
10492;DHT22;5293;51.464;-2.566;2023-07-09T13:08:58;23.20;99.90
10492;DHT22;5293;51.464;-2.566;2023-07-09T13:11:24;23.30;99.90
10492;DHT22;5293;51.464;-2.566;2023-07-09T13:13:58;23.40;99.90
10492;DHT22;5293;51.464;-2.566;2023-07-09T13:16:24;23.30;99.90
10492;DHT22;5293;51.464;-2.566;2023-07-09T13:18:50;23.30;99.90
10492;DHT22;5293;51.464;-2.566;2023-07-09T13:21:19;23.50;99.90
10492;DHT22;5293;51.464;-2.566;2023-07-09T13:23:45;23.70;99.90
10492;DHT22;5293;51.464;-2.566;2023-07-09T13:26:12;23.80;99.90
10492;DHT22;5293;51.464;-2.566;2023-07-09T13:28:38;23.80;99.90
10492;DHT22;5293;51.464;-2.566;2023-07-09T13:31:18;23.80;99.90
10492;DHT22;5293;51.464;-2.566;2023-07-09T13:33:51;23.70;99.90
10492;DHT22;5293;51.464;-2.566;2023-07-09T13:36:18;23.70;99.90
10492;DHT22;5293;51.464;-2.566;2023-07-09T13:38:43;23.60;99.90
10492;DHT22;5293;51.464;-2.566;2023-07-09T13:41:14;23.70;99.90
10492;DHT22;5293;51.464;-2.566;2023-07-09T13:43:44;23.70;99.90
10492;DHT22;5293;51.464;-2.566;2023-07-09T13:46:10;23.70;99.90
10492;DHT22;5293;51.464;-2.566;2023-07-09T13:48:37;23.70;99.90
10492;DHT22;5293;51.464;-2.566;2023-07-09T13:51:22;23.70;99.90
10492;DHT22;5293;51.464;-2.566;2023-07-09T13:53:54;23.80;99.90
10492;DHT22;5293;51.464;-2.566;2023-07-09T13:56:20;23.90;99.90
10492;DHT22;5293;51.464;-2.566;2023-07-09T13:58:46;23.80;99.90
10492;DHT22;5293;51.464;-2.566;2023-07-09T14:01:15;23.90;99.90
10492;DHT22;5293;51.464;-2.566;2023-07-09T14:03:41;23.90;99.90
10492;DHT22;5293;51.464;-2.566;2023-07-09T14:06:15;24.00;99.90
10492;DHT22;5293;51.464;-2.566;2023-07-09T14:08:41;24.00;99.90
10492;DHT22;5293;51.464;-2.566;2023-07-09T14:11:15;24.10;99.90
10492;DHT22;5293;51.464;-2.566;2023-07-09T14:13:41;24.30;99.90
10492;DHT22;5293;51.464;-2.566;2023-07-09T14:16:10;24.40;99.90
10492;DHT22;5293;51.464;-2.566;2023-07-09T14:18:37;24.40;99.90
10492;DHT22;5293;51.464;-2.566;2023-07-09T14:21:25;24.30;99.90
10492;DHT22;5293;51.464;-2.566;2023-07-09T14:23:52;24.30;99.90
10492;DHT22;5293;51.464;-2.566;2023-07-09T14:26:18;24.30;99.90
10492;DHT22;5293;51.464;-2.566;2023-07-09T14:28:44;24.30;99.90
10492;DHT22;5293;51.464;-2.566;2023-07-09T14:31:23;24.20;99.90
10492;DHT22;5293;51.464;-2.566;2023-07-09T14:33:50;24.10;99.90
10492;DHT22;5293;51.464;-2.566;2023-07-09T14:36:15;24.20;99.90
10492;DHT22;5293;51.464;-2.566;2023-07-09T14:38:41;24.20;99.90
10492;DHT22;5293;51.464;-2.566;2023-07-09T14:41:21;24.10;99.90
10492;DHT22;5293;51.464;-2.566;2023-07-09T14:43:48;24.20;99.90
10492;DHT22;5293;51.464;-2.566;2023-07-09T14:46:14;24.30;99.90
10492;DHT22;5293;51.464;-2.566;2023-07-09T14:48:40;24.20;99.90
10492;DHT22;5293;51.464;-2.566;2023-07-09T14:51:14;24.00;99.90
10492;DHT22;5293;51.464;-2.566;2023-07-09T14:53:41;23.90;99.90
10492;DHT22;5293;51.464;-2.566;2023-07-09T14:56:07;23.70;99.90
10492;DHT22;5293;51.464;-2.566;2023-07-09T14:58:32;23.70;99.90
10492;DHT22;5293;51.464;-2.566;2023-07-09T15:00:58;23.70;99.90
10492;DHT22;5293;51.464;-2.566;2023-07-09T15:03:26;23.80;99.90
10492;DHT22;5293;51.464;-2.566;2023-07-09T15:05:52;23.90;99.90
10492;DHT22;5293;51.464;-2.566;2023-07-09T15:08:22;24.00;99.90
10492;DHT22;5293;51.464;-2.566;2023-07-09T15:10:49;24.10;99.90
10492;DHT22;5293;51.464;-2.566;2023-07-09T15:13:31;24.00;99.90
10492;DHT22;5293;51.464;-2.566;2023-07-09T15:16:01;24.00;99.90
10492;DHT22;5293;51.464;-2.566;2023-07-09T15:18:27;24.00;99.90
10492;DHT22;5293;51.464;-2.566;2023-07-09T15:20:56;24.00;99.90
10492;DHT22;5293;51.464;-2.566;2023-07-09T15:23:23;24.10;99.90
10492;DHT22;5293;51.464;-2.566;2023-07-09T15:25:49;24.10;99.90
10492;DHT22;5293;51.464;-2.566;2023-07-09T15:28:16;24.10;99.90
10492;DHT22;5293;51.464;-2.566;2023-07-09T15:30:42;24.10;99.90
10492;DHT22;5293;51.464;-2.566;2023-07-09T15:33:19;24.10;99.90
10492;DHT22;5293;51.464;-2.566;2023-07-09T15:35:47;24.00;99.90
10492;DHT22;5293;51.464;-2.566;2023-07-09T15:40:46;23.90;99.90
10492;DHT22;5293;51.464;-2.566;2023-07-09T15:43:12;24.00;99.90
10492;DHT22;5293;51.464;-2.566;2023-07-09T15:45:41;24.00;99.90
10492;DHT22;5293;51.464;-2.566;2023-07-09T15:48:20;24.00;99.90
10492;DHT22;5293;51.464;-2.566;2023-07-09T15:50:46;24.00;99.90
10492;DHT22;5293;51.464;-2.566;2023-07-09T15:53:12;24.00;99.90
10492;DHT22;5293;51.464;-2.566;2023-07-09T15:55:38;23.80;99.90
10492;DHT22;5293;51.464;-2.566;2023-07-09T15:58:03;23.70;99.90
10492;DHT22;5293;51.464;-2.566;2023-07-09T16:00:30;23.70;99.90
10492;DHT22;5293;51.464;-2.566;2023-07-09T16:02:58;23.70;99.90
10492;DHT22;5293;51.464;-2.566;2023-07-09T16:05:29;23.60;99.90
10492;DHT22;5293;51.464;-2.566;2023-07-09T16:07:57;23.70;99.90
10492;DHT22;5293;51.464;-2.566;2023-07-09T16:10:25;23.70;99.90
10492;DHT22;5293;51.464;-2.566;2023-07-09T16:12:52;23.70;99.90
10492;DHT22;5293;51.464;-2.566;2023-07-09T16:15:19;23.50;99.90
10492;DHT22;5293;51.464;-2.566;2023-07-09T16:17:46;23.30;99.90
10492;DHT22;5293;51.464;-2.566;2023-07-09T16:20:15;23.10;99.90
10492;DHT22;5293;51.464;-2.566;2023-07-09T16:22:43;23.00;99.90
10492;DHT22;5293;51.464;-2.566;2023-07-09T16:25:17;22.80;99.90
10492;DHT22;5293;51.464;-2.566;2023-07-09T16:27:45;22.00;99.90